Time;durP1;ratioP1;P1;durP2;ratioP2;P2;SDS_P1;SDS_P2;PMS_P1;PMS_P2;Temp;Humidity;BMP_temperature;BMP_pressure;BME280_temperature;BME280_humidity;BME280_pressure;Samples;Min_cycle;Max_cycle;Signal;HPM_P1;HPM_P2
2022/08/30 00:01:28;;;;;;;;;;;17.90;99.90;;;;;;5048565;28;19931;-84
2022/08/30 00:03:54;;;;;;;;;;;17.80;99.90;;;;;;5033489;28;20011;-84
2022/08/30 00:06:21;;;;;;;;;;;17.80;99.90;;;;;;5049280;28;20012;-84
2022/08/30 00:08:50;;;;;;;;;;;17.80;99.90;;;;;;5032397;28;19932;-84
2022/08/30 00:11:17;;;;;;;;;;;17.80;99.90;;;;;;5049455;28;20013;-84
2022/08/30 00:13:43;;;;;;;;;;;17.80;99.90;;;;;;5032468;28;20349;-84
2022/08/30 00:16:09;;;;;;;;;;;17.70;99.90;;;;;;5033241;28;19925;-83
2022/08/30 00:18:35;;;;;;;;;;;17.70;99.90;;;;;;5049164;28;20394;-84
2022/08/30 00:21:01;;;;;;;;;;;17.70;99.90;;;;;;5048973;28;19986;-84
2022/08/30 00:23:26;;;;;;;;;;;17.70;99.90;;;;;;5049556;28;19925;-84
2022/08/30 00:25:52;;;;;;;;;;;17.70;99.90;;;;;;5048903;28;20003;-84
2022/08/30 00:28:18;;;;;;;;;;;17.70;99.90;;;;;;5049836;28;19970;-84
2022/08/30 00:30:44;;;;;;;;;;;17.70;99.90;;;;;;5048611;28;20420;-84
2022/08/30 00:33:10;;;;;;;;;;;17.70;99.90;;;;;;5049633;28;19920;-84
2022/08/30 00:35:37;;;;;;;;;;;17.60;99.90;;;;;;5032501;28;19924;-84
2022/08/30 00:38:03;;;;;;;;;;;17.60;99.90;;;;;;5032254;28;19921;-84
2022/08/30 00:40:28;;;;;;;;;;;17.60;99.90;;;;;;5032666;28;19928;-84
2022/08/30 00:42:56;;;;;;;;;;;17.60;99.90;;;;;;5048698;28;19920;-84
2022/08/30 00:45:33;;;;;;;;;;;17.60;99.90;;;;;;5049183;28;19928;-84
2022/08/30 00:47:58;;;;;;;;;;;17.50;99.90;;;;;;5049065;28;20480;-84
2022/08/30 00:50:26;;;;;;;;;;;17.50;99.90;;;;;;5032415;28;19924;-84
2022/08/30 00:52:54;;;;;;;;;;;17.40;99.90;;;;;;5048588;28;20401;-84
2022/08/30 00:55:20;;;;;;;;;;;17.40;99.90;;;;;;5049128;28;19960;-84
2022/08/30 00:57:47;;;;;;;;;;;17.30;99.90;;;;;;5048854;28;20045;-83
2022/08/30 01:00:13;;;;;;;;;;;17.20;99.90;;;;;;5048333;28;20362;-84
2022/08/30 01:02:38;;;;;;;;;;;17.20;99.90;;;;;;5048032;28;19921;-84
2022/08/30 01:05:05;;;;;;;;;;;17.10;99.90;;;;;;5048921;28;20268;-84
2022/08/30 01:07:32;;;;;;;;;;;17.00;99.90;;;;;;5048268;28;19935;-84
2022/08/30 01:09:57;;;;;;;;;;;17.00;99.90;;;;;;5032351;28;19925;-84
2022/08/30 01:12:23;;;;;;;;;;;17.00;99.90;;;;;;5031830;28;19924;-84
2022/08/30 01:14:49;;;;;;;;;;;17.00;99.90;;;;;;5048832;28;19956;-84
2022/08/30 01:17:15;;;;;;;;;;;16.90;99.90;;;;;;5049474;28;19921;-84
2022/08/30 01:19:44;;;;;;;;;;;16.90;99.90;;;;;;5048080;28;19964;-83
2022/08/30 01:22:24;;;;;;;;;;;16.90;99.90;;;;;;5049010;28;19927;-84
2022/08/30 01:24:52;;;;;;;;;;;16.90;99.90;;;;;;5048161;28;19921;-83
2022/08/30 01:27:17;;;;;;;;;;;16.80;99.90;;;;;;5048826;28;19925;-83
2022/08/30 01:29:44;;;;;;;;;;;16.80;99.90;;;;;;5049378;28;20341;-83
2022/08/30 01:32:21;;;;;;;;;;;16.80;99.90;;;;;;5050189;28;19921;-84
2022/08/30 01:34:47;;;;;;;;;;;16.70;99.90;;;;;;5052612;28;19920;-84
2022/08/30 01:37:23;;;;;;;;;;;16.70;99.90;;;;;;5052702;28;20337;-83
2022/08/30 01:39:48;;;;;;;;;;;16.60;99.90;;;;;;5051985;28;19925;-84
2022/08/30 01:42:16;;;;;;;;;;;16.60;99.90;;;;;;5052867;28;19920;-84
2022/08/30 01:44:41;;;;;;;;;;;16.50;99.90;;;;;;5051733;28;19920;-84
2022/08/30 01:47:07;;;;;;;;;;;16.50;99.90;;;;;;5052049;28;19949;-84
2022/08/30 01:49:32;;;;;;;;;;;16.40;99.90;;;;;;5035965;28;19929;-84
2022/08/30 01:51:58;;;;;;;;;;;16.40;99.90;;;;;;5051597;28;19925;-83
2022/08/30 01:54:23;;;;;;;;;;;16.40;99.90;;;;;;5051913;28;20416;-83
2022/08/30 01:56:49;;;;;;;;;;;16.50;99.90;;;;;;5052714;28;19928;-83
2022/08/30 01:59:14;;;;;;;;;;;16.50;99.90;;;;;;5052808;28;19925;-83
2022/08/30 02:01:41;;;;;;;;;;;16.50;99.90;;;;;;5053101;28;19921;-83
2022/08/30 02:04:07;;;;;;;;;;;16.50;99.90;;;;;;5051355;28;20390;-83
2022/08/30 02:06:33;;;;;;;;;;;16.50;99.90;;;;;;5035225;28;19967;-84
2022/08/30 02:08:59;;;;;;;;;;;16.50;99.90;;;;;;5051559;28;19956;-83
2022/08/30 02:11:24;;;;;;;;;;;16.50;99.90;;;;;;5051334;28;19921;-84
2022/08/30 02:13:50;;;;;;;;;;;16.50;99.90;;;;;;5052209;28;20341;-84
2022/08/30 02:16:18;;;;;;;;;;;16.40;99.90;;;;;;5051455;28;19979;-84
2022/08/30 02:18:43;;;;;;;;;;;16.40;99.90;;;;;;5035608;28;20367;-83
2022/08/30 02:21:09;;;;;;;;;;;16.40;99.90;;;;;;5034235;28;19964;-84
2022/08/30 02:23:35;;;;;;;;;;;16.30;99.90;;;;;;5034870;28;19971;-84
2022/08/30 02:26:01;;;;;;;;;;;16.30;99.90;;;;;;5035541;28;19921;-84
2022/08/30 02:28:26;;;;;;;;;;;16.30;99.90;;;;;;5051151;28;19928;-84
2022/08/30 02:30:52;;;;;;;;;;;16.30;99.90;;;;;;5034643;28;19925;-84
2022/08/30 02:33:18;;;;;;;;;;;16.30;99.90;;;;;;5035181;28;19920;-84
2022/08/30 02:35:43;;;;;;;;;;;16.30;99.90;;;;;;5050644;28;19920;-84
2022/08/30 02:38:09;;;;;;;;;;;16.20;99.90;;;;;;5051419;28;19971;-84
2022/08/30 02:40:34;;;;;;;;;;;16.20;99.90;;;;;;5050578;28;19928;-84
2022/08/30 02:43:00;;;;;;;;;;;16.20;99.90;;;;;;5051650;28;19928;-84
2022/08/30 02:45:26;;;;;;;;;;;16.10;99.90;;;;;;5051215;28;19925;-84
2022/08/30 02:47:51;;;;;;;;;;;16.00;99.90;;;;;;5050606;28;19974;-83
2022/08/30 02:50:17;;;;;;;;;;;16.00;99.90;;;;;;5051160;28;19925;-83
2022/08/30 02:52:43;;;;;;;;;;;16.00;99.90;;;;;;5050210;28;19925;-83
2022/08/30 02:55:09;;;;;;;;;;;16.00;99.90;;;;;;5051498;28;20397;-83
2022/08/30 02:57:36;;;;;;;;;;;16.00;99.90;;;;;;5034644;28;19928;-84
2022/08/30 03:00:04;;;;;;;;;;;15.90;99.90;;;;;;5033481;28;20452;-83
2022/08/30 03:02:29;;;;;;;;;;;15.90;99.90;;;;;;5050916;28;19928;-84
2022/08/30 03:04:56;;;;;;;;;;;15.80;99.90;;;;;;5033301;28;19929;-83
2022/08/30 03:07:21;;;;;;;;;;;15.80;99.90;;;;;;5050906;28;19921;-84
2022/08/30 03:09:47;;;;;;;;;;;15.70;99.90;;;;;;5052313;28;19935;-84
2022/08/30 03:12:12;;;;;;;;;;;15.60;99.90;;;;;;5050685;28;20015;-84
2022/08/30 03:14:38;;;;;;;;;;;15.50;99.90;;;;;;5051941;28;19927;-83
2022/08/30 03:17:05;;;;;;;;;;;15.40;99.90;;;;;;5050705;28;19928;-83
2022/08/30 03:19:31;;;;;;;;;;;15.30;99.90;;;;;;5050399;28;19921;-83
2022/08/30 03:21:57;;;;;;;;;;;15.30;99.90;;;;;;5050062;28;20015;-83
2022/08/30 03:24:22;;;;;;;;;;;15.20;99.90;;;;;;5033445;28;20007;-83
2022/08/30 03:26:48;;;;;;;;;;;15.20;99.90;;;;;;5033823;28;19971;-83
2022/08/30 03:29:13;;;;;;;;;;;15.20;99.90;;;;;;5050578;28;19929;-83
2022/08/30 03:31:39;;;;;;;;;;;15.20;99.90;;;;;;5049634;28;19982;-83
2022/08/30 03:34:04;;;;;;;;;;;15.20;99.90;;;;;;5050133;28;19921;-83
2022/08/30 03:36:30;;;;;;;;;;;15.20;99.90;;;;;;5050190;28;19928;-83
2022/08/30 03:38:56;;;;;;;;;;;15.20;99.90;;;;;;5049882;28;19932;-83
2022/08/30 03:41:23;;;;;;;;;;;15.20;99.90;;;;;;5049888;28;19921;-83
2022/08/30 03:43:48;;;;;;;;;;;15.20;99.90;;;;;;5050200;28;19931;-83
2022/08/30 03:46:14;;;;;;;;;;;15.20;99.90;;;;;;5033265;28;19921;-84
2022/08/30 03:48:40;;;;;;;;;;;15.20;99.90;;;;;;5049923;28;19921;-84
2022/08/30 03:51:05;;;;;;;;;;;15.10;99.90;;;;;;5049112;28;19927;-83
2022/08/30 03:53:31;;;;;;;;;;;15.10;99.90;;;;;;5050258;28;20330;-83
2022/08/30 03:55:56;;;;;;;;;;;15.10;99.90;;;;;;5032495;28;20004;-83
2022/08/30 03:58:22;;;;;;;;;;;15.10;99.90;;;;;;5032780;28;20279;-83
2022/08/30 04:00:47;;;;;;;;;;;15.10;99.90;;;;;;5049438;28;20011;-84
2022/08/30 04:03:13;;;;;;;;;;;15.10;99.90;;;;;;5049683;28;19921;-83
2022/08/30 04:05:38;;;;;;;;;;;15.00;99.90;;;;;;5049752;28;20484;-83
2022/08/30 04:08:04;;;;;;;;;;;15.00;99.90;;;;;;5049006;28;19921;-83
2022/08/30 04:10:30;;;;;;;;;;;14.90;99.90;;;;;;5050108;28;19924;-83
2022/08/30 04:12:56;;;;;;;;;;;14.90;99.90;;;;;;5048838;28;20000;-83
2022/08/30 04:15:21;;;;;;;;;;;14.90;99.90;;;;;;5049452;28;19969;-84
2022/08/30 04:17:47;;;;;;;;;;;14.90;99.90;;;;;;5049536;28;20523;-83
2022/08/30 04:20:12;;;;;;;;;;;14.80;99.90;;;;;;5049005;28;19924;-83
2022/08/30 04:22:38;;;;;;;;;;;14.80;99.90;;;;;;5049251;28;19984;-84
2022/08/30 04:25:04;;;;;;;;;;;14.80;99.90;;;;;;5049384;28;19977;-84
2022/08/30 04:27:29;;;;;;;;;;;14.80;99.90;;;;;;5048770;28;19982;-83
2022/08/30 04:29:55;;;;;;;;;;;14.80;99.90;;;;;;5049333;28;19928;-83
2022/08/30 04:32:20;;;;;;;;;;;14.80;99.90;;;;;;5032272;28;20015;-83
2022/08/30 04:34:46;;;;;;;;;;;14.80;99.90;;;;;;5049519;28;19927;-84
2022/08/30 04:37:12;;;;;;;;;;;14.80;99.90;;;;;;5049068;28;19931;-83
2022/08/30 04:39:37;;;;;;;;;;;14.80;99.90;;;;;;5049374;28;19928;-83
2022/08/30 04:42:03;;;;;;;;;;;14.80;99.90;;;;;;5048268;28;19921;-83
2022/08/30 04:44:30;;;;;;;;;;;14.80;99.90;;;;;;5049153;28;19921;-83
2022/08/30 04:46:55;;;;;;;;;;;14.80;99.90;;;;;;5032067;28;19928;-83
2022/08/30 04:49:21;;;;;;;;;;;14.80;99.90;;;;;;5032555;28;19983;-83
2022/08/30 04:51:47;;;;;;;;;;;14.80;99.90;;;;;;5048685;28;20003;-83
2022/08/30 04:54:12;;;;;;;;;;;14.70;99.90;;;;;;5048951;28;19920;-83
2022/08/30 04:56:38;;;;;;;;;;;14.70;99.90;;;;;;5032941;28;20368;-83
2022/08/30 04:59:03;;;;;;;;;;;14.60;99.90;;;;;;5048544;28;19928;-83
2022/08/30 05:01:30;;;;;;;;;;;14.60;99.90;;;;;;5031645;28;19920;-83
2022/08/30 05:03:56;;;;;;;;;;;14.60;99.90;;;;;;5049652;28;19925;-83
2022/08/30 05:06:22;;;;;;;;;;;14.60;99.90;;;;;;5034347;28;20015;-83
2022/08/30 05:08:47;;;;;;;;;;;14.60;99.90;;;;;;5036315;28;19966;-83
2022/08/30 05:11:14;;;;;;;;;;;14.60;99.90;;;;;;5036178;28;20455;-83
2022/08/30 05:13:39;;;;;;;;;;;14.60;99.90;;;;;;5035984;28;19921;-83
2022/08/30 05:16:06;;;;;;;;;;;14.60;99.90;;;;;;5034580;28;19931;-83
2022/08/30 05:18:32;;;;;;;;;;;14.50;99.90;;;;;;5052418;28;19929;-83
2022/08/30 05:21:05;;;;;;;;;;;14.50;99.90;;;;;;5052186;28;19974;-83
2022/08/30 05:23:31;;;;;;;;;;;14.50;99.90;;;;;;5036176;28;19967;-83
2022/08/30 05:25:56;;;;;;;;;;;14.40;99.90;;;;;;5051620;28;20556;-83
2022/08/30 05:28:22;;;;;;;;;;;14.40;99.90;;;;;;5052218;28;20008;-82
2022/08/30 05:30:47;;;;;;;;;;;14.40;99.90;;;;;;5045077;28;19932;-82
2022/08/30 05:33:13;;;;;;;;;;;14.40;99.90;;;;;;5086399;28;20389;-83
2022/08/30 05:35:39;;;;;;;;;;;14.40;99.90;;;;;;5082280;28;19920;-83
2022/08/30 05:38:04;;;;;;;;;;;14.40;99.90;;;;;;5052748;28;20008;-83
2022/08/30 05:40:30;;;;;;;;;;;14.40;99.90;;;;;;5052377;28;20035;-83
2022/08/30 05:42:55;;;;;;;;;;;14.50;99.90;;;;;;5023585;28;19929;-83
2022/08/30 05:45:21;;;;;;;;;;;14.50;99.90;;;;;;5034495;28;19971;-83
2022/08/30 05:47:46;;;;;;;;;;;14.50;99.90;;;;;;5051796;28;19920;-83
2022/08/30 05:50:12;;;;;;;;;;;14.60;99.90;;;;;;5035808;28;19929;-83
2022/08/30 05:52:39;;;;;;;;;;;14.60;99.90;;;;;;5052084;28;19928;-83
2022/08/30 05:55:06;;;;;;;;;;;14.60;99.90;;;;;;5051547;28;19967;-83
2022/08/30 05:57:32;;;;;;;;;;;14.70;99.90;;;;;;5052790;28;20282;-83
2022/08/30 05:59:59;;;;;;;;;;;14.70;99.90;;;;;;5052343;28;20344;-83
2022/08/30 06:02:25;;;;;;;;;;;14.80;99.90;;;;;;5034643;28;20493;-83
2022/08/30 06:04:50;;;;;;;;;;;14.80;99.90;;;;;;5051618;28;20003;-83
2022/08/30 06:07:15;;;;;;;;;;;14.80;99.90;;;;;;5051963;28;20286;-83
2022/08/30 06:09:41;;;;;;;;;;;14.90;99.90;;;;;;5035639;28;20012;-83
2022/08/30 06:12:07;;;;;;;;;;;14.90;99.90;;;;;;5051241;28;19928;-84
2022/08/30 06:14:33;;;;;;;;;;;15.00;99.90;;;;;;5051655;28;19960;-84
2022/08/30 06:16:58;;;;;;;;;;;15.00;99.90;;;;;;5050746;28;19921;-84
2022/08/30 06:19:23;;;;;;;;;;;15.00;99.90;;;;;;5051896;28;20333;-84
2022/08/30 06:21:49;;;;;;;;;;;15.10;99.90;;;;;;5050907;28;19920;-84
2022/08/30 06:24:15;;;;;;;;;;;15.10;99.90;;;;;;5051503;28;19948;-84
2022/08/30 06:26:42;;;;;;;;;;;15.20;99.90;;;;;;5051723;28;20381;-84
2022/08/30 06:29:09;;;;;;;;;;;15.20;99.90;;;;;;5050112;28;19939;-84
2022/08/30 06:31:35;;;;;;;;;;;15.30;99.90;;;;;;5050866;28;20267;-84
2022/08/30 06:34:00;;;;;;;;;;;15.20;99.90;;;;;;5040666;28;19933;-84
2022/08/30 06:36:26;;;;;;;;;;;15.30;99.90;;;;;;5075012;28;19932;-84
2022/08/30 06:38:53;;;;;;;;;;;15.40;99.90;;;;;;5076152;28;20384;-84
2022/08/30 06:41:21;;;;;;;;;;;15.40;99.90;;;;;;5056614;28;19928;-84
2022/08/30 06:43:46;;;;;;;;;;;15.50;99.90;;;;;;5041922;28;19932;-85
2022/08/30 06:46:14;;;;;;;;;;;15.50;99.90;;;;;;5041616;28;19928;-84
2022/08/30 06:48:39;;;;;;;;;;;15.60;99.90;;;;;;5026186;28;20405;-84
2022/08/30 06:51:05;;;;;;;;;;;15.60;99.90;;;;;;5025585;28;19941;-85
2022/08/30 06:53:30;;;;;;;;;;;15.70;99.90;;;;;;5034006;28;19927;-83
2022/08/30 06:55:56;;;;;;;;;;;15.80;99.90;;;;;;5042583;28;19925;-84
2022/08/30 06:58:21;;;;;;;;;;;15.80;99.90;;;;;;5051709;28;20394;-84
2022/08/30 07:00:47;;;;;;;;;;;15.90;99.90;;;;;;5050873;28;20038;-85
2022/08/30 07:03:12;;;;;;;;;;;16.00;99.90;;;;;;5049536;28;19972;-85
2022/08/30 07:05:38;;;;;;;;;;;16.00;99.90;;;;;;5051171;28;20275;-84
2022/08/30 07:08:03;;;;;;;;;;;16.10;99.90;;;;;;5050924;28;19943;-85
2022/08/30 07:10:29;;;;;;;;;;;16.20;99.90;;;;;;5049880;28;19925;-85
2022/08/30 07:12:54;;;;;;;;;;;16.20;99.90;;;;;;5050920;28;19921;-85
2022/08/30 07:15:21;;;;;;;;;;;16.30;99.90;;;;;;5050743;28;19925;-84
2022/08/30 07:20:31;;;;;;;;;;;16.50;99.90;;;;;;5050706;28;19927;-85
2022/08/30 07:22:57;;;;;;;;;;;16.50;99.90;;;;;;5066421;28;19921;-84
2022/08/30 07:25:23;;;;;;;;;;;16.60;99.90;;;;;;5033889;28;20275;-84
2022/08/30 07:27:50;;;;;;;;;;;16.70;99.90;;;;;;5050122;28;19924;-85
2022/08/30 07:30:16;;;;;;;;;;;16.70;99.90;;;;;;5033109;28;19935;-85
2022/08/30 07:32:42;;;;;;;;;;;16.80;99.90;;;;;;5050432;28;19925;-85
2022/08/30 07:35:08;;;;;;;;;;;16.90;99.90;;;;;;5049852;28;19921;-85
2022/08/30 07:37:33;;;;;;;;;;;16.90;99.90;;;;;;5034162;28;19929;-85
2022/08/30 07:39:59;;;;;;;;;;;17.00;99.90;;;;;;5049539;28;19928;-85
2022/08/30 07:42:24;;;;;;;;;;;17.10;99.90;;;;;;5033785;28;20015;-85
2022/08/30 07:44:50;;;;;;;;;;;17.20;99.90;;;;;;5033548;28;20306;-85
2022/08/30 07:47:15;;;;;;;;;;;17.20;99.90;;;;;;5050009;28;19975;-85
2022/08/30 07:49:41;;;;;;;;;;;17.30;99.90;;;;;;5033148;28;19925;-85
2022/08/30 07:52:06;;;;;;;;;;;17.40;99.90;;;;;;5033101;28;19928;-85
2022/08/30 07:54:32;;;;;;;;;;;17.40;99.90;;;;;;5033355;28;19968;-85
2022/08/30 07:56:57;;;;;;;;;;;17.50;99.90;;;;;;5049826;28;19920;-85
2022/08/30 07:59:23;;;;;;;;;;;17.50;99.90;;;;;;5049675;28;19921;-85
2022/08/30 08:01:49;;;;;;;;;;;17.60;99.90;;;;;;5049551;28;19924;-85
2022/08/30 08:04:14;;;;;;;;;;;17.70;99.90;;;;;;5049587;28;19947;-85
2022/08/30 08:06:40;;;;;;;;;;;17.70;99.90;;;;;;5033097;28;20062;-85
2022/08/30 08:09:06;;;;;;;;;;;17.80;99.90;;;;;;5049663;28;20360;-85
2022/08/30 08:11:32;;;;;;;;;;;17.90;99.90;;;;;;5032682;28;20019;-85
2022/08/30 08:13:57;;;;;;;;;;;17.90;99.90;;;;;;5049499;28;19931;-85
2022/08/30 08:16:26;;;;;;;;;;;18.00;99.90;;;;;;5049795;28;19966;-85
2022/08/30 08:18:52;;;;;;;;;;;18.10;99.90;;;;;;5049742;28;20424;-85
2022/08/30 08:21:18;;;;;;;;;;;18.20;99.90;;;;;;5049243;28;19924;-85
2022/08/30 08:23:44;;;;;;;;;;;18.30;99.90;;;;;;5032650;28;19927;-85
2022/08/30 08:26:09;;;;;;;;;;;18.30;99.90;;;;;;5032767;28;19924;-85
2022/08/30 08:28:35;;;;;;;;;;;18.40;99.90;;;;;;5049528;28;19920;-85
2022/08/30 08:31:00;;;;;;;;;;;18.50;99.90;;;;;;5048929;28;19925;-85
2022/08/30 08:33:26;;;;;;;;;;;18.50;99.90;;;;;;5049516;28;20336;-85
2022/08/30 08:35:51;;;;;;;;;;;18.60;99.90;;;;;;5048666;28;19927;-85
2022/08/30 08:38:17;;;;;;;;;;;18.70;99.90;;;;;;5049994;28;20336;-85
2022/08/30 08:40:50;;;;;;;;;;;18.70;99.90;;;;;;5048751;28;19975;-85
2022/08/30 08:43:18;;;;;;;;;;;18.80;99.90;;;;;;5049299;28;20016;-85
2022/08/30 08:46:22;;;;;;;;;;;18.90;99.90;;;;;;5049535;28;19971;-85
2022/08/30 08:48:49;;;;;;;;;;;18.90;99.90;;;;;;4990873;28;19968;-85
2022/08/30 08:54:02;;;;;;;;;;;19.10;99.90;;;;;;5025616;28;20374;-85
2022/08/30 08:56:28;;;;;;;;;;;19.10;99.90;;;;;;5048672;28;19921;-85
2022/08/30 08:58:55;;;;;;;;;;;19.20;99.90;;;;;;5043450;28;19921;-85
2022/08/30 09:01:23;;;;;;;;;;;19.30;99.90;;;;;;5044315;28;19921;-85
2022/08/30 09:03:49;;;;;;;;;;;19.30;99.90;;;;;;5032828;28;20294;-85
2022/08/30 09:06:21;;;;;;;;;;;19.40;99.90;;;;;;5048698;28;19979;-85
2022/08/30 09:08:47;;;;;;;;;;;19.50;99.90;;;;;;5031980;28;19925;-85
2022/08/30 09:11:18;;;;;;;;;;;19.50;99.90;;;;;;5032378;28;20588;-85
2022/08/30 09:13:43;;;;;;;;;;;19.60;99.90;;;;;;5048420;28;20023;-85
2022/08/30 09:16:28;;;;;;;;;;;19.60;99.90;;;;;;5043892;28;19963;-85
2022/08/30 09:18:54;;;;;;;;;;;19.70;99.90;;;;;;5056588;28;19986;-85
2022/08/30 09:21:22;;;;;;;;;;;19.70;99.90;;;;;;5039555;28;20477;-85
2022/08/30 09:23:49;;;;;;;;;;;19.80;99.90;;;;;;5054497;28;19920;-85
2022/08/30 09:26:14;;;;;;;;;;;19.80;99.90;;;;;;5042399;28;19928;-85
2022/08/30 09:28:47;;;;;;;;;;;19.90;99.90;;;;;;5036709;28;19924;-85
2022/08/30 09:31:20;;;;;;;;;;;19.90;99.90;;;;;;5043024;28;19924;-85
2022/08/30 09:33:53;;;;;;;;;;;19.90;99.90;;;;;;5048972;28;19921;-85
2022/08/30 09:36:24;;;;;;;;;;;20.00;99.90;;;;;;5032635;28;19927;-85
2022/08/30 09:38:55;;;;;;;;;;;20.00;99.90;;;;;;5032006;28;19925;-85
2022/08/30 09:41:26;;;;;;;;;;;20.10;99.90;;;;;;5048406;28;19921;-85
2022/08/30 09:44:26;;;;;;;;;;;20.10;99.90;;;;;;5047895;28;19929;-85
2022/08/30 09:46:54;;;;;;;;;;;20.20;99.90;;;;;;4991324;28;19926;-85
2022/08/30 09:49:33;;;;;;;;;;;20.30;99.90;;;;;;4990410;28;20415;-85
2022/08/30 09:52:05;;;;;;;;;;;20.30;99.30;;;;;;4991167;28;19972;-85
2022/08/30 09:54:34;;;;;;;;;;;20.40;99.90;;;;;;4994783;28;20387;-85
2022/08/30 09:57:10;;;;;;;;;;;20.40;99.90;;;;;;5010521;28;19922;-86
2022/08/30 09:59:47;;;;;;;;;;;20.50;99.20;;;;;;5011753;28;19928;-85
2022/08/30 10:02:25;;;;;;;;;;;20.50;99.40;;;;;;4977360;28;20020;-86
2022/08/30 10:05:08;;;;;;;;;;;20.60;99.90;;;;;;5005476;28;20060;-85
2022/08/30 10:07:54;;;;;;;;;;;20.70;99.60;;;;;;5011442;28;19922;-85
2022/08/30 10:10:26;;;;;;;;;;;20.80;99.80;;;;;;4989840;28;19933;-85
2022/08/30 10:12:53;;;;;;;;;;;20.90;99.90;;;;;;4994806;28;19995;-85
2022/08/30 10:15:27;;;;;;;;;;;21.00;99.60;;;;;;4993882;28;19968;-85
2022/08/30 10:17:53;;;;;;;;;;;21.00;98.00;;;;;;4994856;28;19922;-85
2022/08/30 10:20:29;;;;;;;;;;;21.10;97.50;;;;;;4994566;28;19928;-85
2022/08/30 10:23:06;;;;;;;;;;;21.10;98.10;;;;;;5031847;28;20437;-85
2022/08/30 10:25:40;;;;;;;;;;;21.20;98.70;;;;;;5051879;28;19924;-85
2022/08/30 10:28:06;;;;;;;;;;;21.30;97.50;;;;;;5051354;28;19944;-85
2022/08/30 10:30:33;;;;;;;;;;;21.40;97.20;;;;;;5047856;28;20581;-85
2022/08/30 10:33:03;;;;;;;;;;;21.40;95.90;;;;;;5045207;28;19921;-85
2022/08/30 10:35:34;;;;;;;;;;;21.50;96.50;;;;;;5052144;28;19921;-86
2022/08/30 10:38:03;;;;;;;;;;;21.50;95.40;;;;;;5050999;28;20019;-86
2022/08/30 10:43:24;;;;;;;;;;;21.70;94.90;;;;;;5050809;28;20333;-86
2022/08/30 10:45:52;;;;;;;;;;;21.80;93.70;;;;;;5033885;28;19959;-85
2022/08/30 10:48:24;;;;;;;;;;;21.90;93.20;;;;;;5050117;28;19921;-86
2022/08/30 10:50:52;;;;;;;;;;;22.00;93.30;;;;;;5049702;28;19947;-85
2022/08/30 10:53:21;;;;;;;;;;;22.10;92.00;;;;;;5051188;28;19921;-86
2022/08/30 10:55:57;;;;;;;;;;;22.20;92.30;;;;;;5051514;28;19948;-85
2022/08/30 10:58:23;;;;;;;;;;;22.30;92.40;;;;;;5050880;28;19929;-86
2022/08/30 11:01:21;;;;;;;;;;;22.30;90.00;;;;;;5050891;28;19928;-85
2022/08/30 11:04:04;;;;;;;;;;;22.30;83.30;;;;;;5017157;28;20377;-86
2022/08/30 11:06:35;;;;;;;;;;;22.40;83.30;;;;;;5051453;28;19920;-86
2022/08/30 11:09:13;;;;;;;;;;;22.40;81.80;;;;;;5032943;28;19921;-86
2022/08/30 11:11:59;;;;;;;;;;;22.50;80.90;;;;;;5051040;28;19921;-85
2022/08/30 11:14:25;;;;;;;;;;;22.60;77.60;;;;;;5034218;28;19946;-85
2022/08/30 11:16:52;;;;;;;;;;;22.70;75.40;;;;;;5050354;28;19921;-86
2022/08/30 11:19:26;;;;;;;;;;;22.70;78.30;;;;;;5051118;28;19936;-86
2022/08/30 11:22:06;;;;;;;;;;;22.90;77.90;;;;;;5032918;28;19925;-85
2022/08/30 11:24:52;;;;;;;;;;;23.10;77.90;;;;;;5033740;28;19921;-86
2022/08/30 11:27:36;;;;;;;;;;;23.20;75.50;;;;;;5033592;28;19929;-86
2022/08/30 11:30:22;;;;;;;;;;;23.30;72.60;;;;;;5032937;28;19951;-86
2022/08/30 11:32:59;;;;;;;;;;;23.40;73.60;;;;;;5050018;28;19928;-85
2022/08/30 11:35:42;;;;;;;;;;;23.50;71.30;;;;;;5033599;28;19921;-86
2022/08/30 11:38:15;;;;;;;;;;;23.70;71.50;;;;;;5050082;28;19920;-86
2022/08/30 11:40:43;;;;;;;;;;;23.80;72.60;;;;;;5050671;28;19924;-86
2022/08/30 11:43:27;;;;;;;;;;;23.90;70.00;;;;;;5049732;28;20011;-86
2022/08/30 11:46:11;;;;;;;;;;;24.00;67.30;;;;;;5049378;28;19928;-86
2022/08/30 11:48:40;;;;;;;;;;;24.10;68.80;;;;;;5048903;28;20029;-86
2022/08/30 11:51:09;;;;;;;;;;;24.20;70.20;;;;;;5049398;28;19929;-86
2022/08/30 11:53:45;;;;;;;;;;;24.40;68.90;;;;;;5049567;28;19967;-86
2022/08/30 11:56:29;;;;;;;;;;;24.50;70.60;;;;;;5050290;28;19943;-86
2022/08/30 11:59:09;;;;;;;;;;;24.70;70.20;;;;;;5048562;28;19935;-86
2022/08/30 12:01:36;;;;;;;;;;;24.90;65.40;;;;;;5050086;28;19925;-86
2022/08/30 12:04:04;;;;;;;;;;;25.00;66.90;;;;;;5049228;28;19925;-86
2022/08/30 12:06:38;;;;;;;;;;;25.10;66.20;;;;;;5049960;28;19928;-86
2022/08/30 12:09:05;;;;;;;;;;;25.20;66.80;;;;;;5032986;28;20461;-86
2022/08/30 12:11:30;;;;;;;;;;;25.20;64.90;;;;;;5049159;28;19921;-87
2022/08/30 12:13:56;;;;;;;;;;;25.30;65.30;;;;;;5049928;28;19931;-86
2022/08/30 12:18:26;;;;;;;;;;;25.40;61.90;;;;;;5049078;28;20419;-86
2022/08/30 12:19:25;;;;;;;;;;;25.50;62.10;;;;;;5049668;28;19956;-86
2022/08/30 12:21:59;;;;;;;;;;;25.70;62.80;;;;;;5048547;28;19964;-87
2022/08/30 12:24:35;;;;;;;;;;;25.80;62.50;;;;;;5048075;28;19925;-86
2022/08/30 12:27:08;;;;;;;;;;;25.90;62.40;;;;;;5049791;28;19925;-86
2022/08/30 12:29:34;;;;;;;;;;;26.00;62.00;;;;;;5047431;28;19925;-86
2022/08/30 12:32:01;;;;;;;;;;;26.10;61.40;;;;;;5049692;28;19974;-86
2022/08/30 12:34:28;;;;;;;;;;;26.20;61.00;;;;;;5032536;28;20448;-87
2022/08/30 12:37:07;;;;;;;;;;;26.30;60.40;;;;;;5048970;28;20294;-86
2022/08/30 12:39:35;;;;;;;;;;;26.40;60.50;;;;;;5049807;28;19921;-87
2022/08/30 12:42:12;;;;;;;;;;;26.60;59.80;;;;;;5032247;28;19928;-86
2022/08/30 12:44:38;;;;;;;;;;;26.80;60.10;;;;;;5048567;28;19928;-86
2022/08/30 12:47:04;;;;;;;;;;;27.00;59.00;;;;;;5048793;28;19955;-86
2022/08/30 12:49:32;;;;;;;;;;;27.20;58.60;;;;;;5048990;28;19929;-86
2022/08/30 12:52:16;;;;;;;;;;;27.40;57.20;;;;;;5049198;28;19921;-87
2022/08/30 12:54:42;;;;;;;;;;;27.40;56.50;;;;;;5032171;28;19921;-86
2022/08/30 12:57:08;;;;;;;;;;;27.30;56.10;;;;;;5049299;28;19924;-86
2022/08/30 12:59:38;;;;;;;;;;;27.40;57.00;;;;;;5048337;28;19921;-86
2022/08/30 13:02:13;;;;;;;;;;;27.50;53.90;;;;;;5032603;28;19921;-86
2022/08/30 13:04:38;;;;;;;;;;;27.70;55.20;;;;;;5048997;28;19921;-86
2022/08/30 13:07:04;;;;;;;;;;;27.90;55.80;;;;;;5048299;28;20394;-86
2022/08/30 13:09:32;;;;;;;;;;;28.20;53.60;;;;;;5050273;28;19987;-86
2022/08/30 13:11:58;;;;;;;;;;;28.40;50.50;;;;;;5048283;28;19921;-87
2022/08/30 13:14:30;;;;;;;;;;;28.60;52.20;;;;;;5048859;28;20047;-86
2022/08/30 13:17:10;;;;;;;;;;;28.80;49.40;;;;;;5049024;28;19927;-86
2022/08/30 13:19:37;;;;;;;;;;;29.00;51.70;;;;;;5047584;28;19921;-87
2022/08/30 13:22:03;;;;;;;;;;;29.10;50.90;;;;;;5037792;28;19929;-87
2022/08/30 13:24:29;;;;;;;;;;;29.40;49.00;;;;;;5040892;28;19929;-87
2022/08/30 13:26:57;;;;;;;;;;;29.30;48.50;;;;;;5050699;28;20290;-87
2022/08/30 13:29:26;;;;;;;;;;;29.30;49.70;;;;;;5048649;28;19936;-87
2022/08/30 13:31:52;;;;;;;;;;;29.40;49.00;;;;;;5041812;28;19936;-87
2022/08/30 13:34:21;;;;;;;;;;;29.40;48.60;;;;;;5042645;28;19925;-87
2022/08/30 13:36:51;;;;;;;;;;;29.40;48.40;;;;;;5049806;28;20600;-87
2022/08/30 13:39:17;;;;;;;;;;;29.60;49.90;;;;;;5049635;28;19925;-87
2022/08/30 13:41:42;;;;;;;;;;;29.80;48.40;;;;;;5032502;28;20298;-87
2022/08/30 13:44:08;;;;;;;;;;;30.00;48.70;;;;;;5048894;28;20373;-87
2022/08/30 13:46:34;;;;;;;;;;;30.00;46.50;;;;;;5049246;28;19925;-87
2022/08/30 13:49:04;;;;;;;;;;;29.70;46.80;;;;;;5048373;28;20017;-87
2022/08/30 13:51:30;;;;;;;;;;;29.70;48.60;;;;;;5032120;28;19928;-87
2022/08/30 13:53:56;;;;;;;;;;;29.60;47.40;;;;;;5048841;28;19932;-87
2022/08/30 13:56:23;;;;;;;;;;;29.60;48.00;;;;;;5049440;28;19921;-87
2022/08/30 13:58:49;;;;;;;;;;;29.70;47.50;;;;;;5048146;28;19921;-87
2022/08/30 14:01:14;;;;;;;;;;;29.70;46.90;;;;;;5048725;28;20316;-87
2022/08/30 14:03:40;;;;;;;;;;;29.80;48.40;;;;;;5048647;28;19994;-87
2022/08/30 14:06:06;;;;;;;;;;;29.80;46.90;;;;;;5048345;28;20405;-87
2022/08/30 14:08:31;;;;;;;;;;;29.90;47.50;;;;;;5049703;28;19921;-87
2022/08/30 14:10:57;;;;;;;;;;;29.80;47.10;;;;;;5050796;28;20425;-86
2022/08/30 14:13:23;;;;;;;;;;;29.70;46.00;;;;;;5052266;28;19921;-87
2022/08/30 14:15:49;;;;;;;;;;;29.50;45.70;;;;;;5052101;28;20430;-87
2022/08/30 14:18:15;;;;;;;;;;;29.40;45.90;;;;;;5051567;28;19924;-87
2022/08/30 14:20:40;;;;;;;;;;;29.60;46.20;;;;;;5052106;28;19927;-87
2022/08/30 14:23:06;;;;;;;;;;;29.80;46.80;;;;;;5034711;28;19920;-86
2022/08/30 14:25:32;;;;;;;;;;;29.90;46.00;;;;;;5051964;28;20294;-86
2022/08/30 14:27:58;;;;;;;;;;;30.10;47.30;;;;;;5051482;28;19927;-87
2022/08/30 14:30:24;;;;;;;;;;;30.20;45.90;;;;;;5034810;28;20015;-87